createdAt,value
2019-02-24T00:01:49.821Z,12.53
2019-02-24T00:04:19.293Z,13.13
2019-02-24T00:06:52.673Z,12.10
2019-02-24T00:09:22.037Z,11.17
2019-02-24T00:11:51.421Z,12.60
2019-02-24T00:14:22.025Z,14.17
2019-02-24T00:16:51.457Z,13.23
2019-02-24T00:19:20.907Z,15.03
2019-02-24T00:21:50.348Z,12.00
2019-02-24T00:24:20.233Z,14.33
2019-02-24T00:26:53.503Z,14.27
2019-02-24T00:29:22.869Z,14.77
2019-02-24T00:31:52.239Z,14.30
2019-02-24T00:34:22.655Z,15.67
2019-02-24T00:36:52.081Z,14.90
2019-02-24T00:39:21.533Z,14.73
2019-02-24T00:41:51.153Z,12.73
2019-02-24T00:44:21.413Z,12.25
2019-02-24T00:46:51.939Z,13.30
2019-02-24T00:49:21.609Z,14.17
2019-02-24T00:51:54.515Z,15.40
2019-02-24T00:54:23.963Z,17.80
2019-02-24T00:56:53.389Z,13.60
2019-02-24T00:59:25.996Z,17.37
2019-02-24T01:01:56.573Z,15.03
2019-02-24T01:04:26.015Z,12.77
2019-02-24T01:06:56.433Z,14.13
2019-02-24T01:09:25.886Z,12.77
2019-02-24T01:11:55.374Z,15.30
2019-02-24T01:14:25.855Z,14.20
2019-02-24T01:16:56.403Z,13.00
2019-02-24T01:19:25.891Z,13.63
2019-02-24T01:21:55.330Z,13.87
2019-02-24T01:24:24.773Z,12.50
2019-02-24T01:26:54.172Z,13.10
2019-02-24T01:29:23.809Z,14.30
2019-02-24T01:31:53.918Z,12.63
2019-02-24T01:34:24.015Z,11.80
2019-02-24T01:36:54.141Z,14.80
2019-02-24T01:39:24.234Z,13.60
2019-02-24T01:41:54.408Z,14.05
2019-02-24T01:44:24.489Z,16.37
2019-02-24T01:46:55.407Z,15.47
2019-02-24T01:49:24.839Z,15.00
2019-02-24T01:51:54.857Z,15.93
2019-02-24T01:54:24.949Z,18.50
2019-02-24T01:56:55.050Z,14.97
2019-02-24T01:59:25.227Z,12.83
2019-02-24T02:01:55.412Z,15.13
2019-02-24T02:04:25.499Z,13.33
2019-02-24T02:06:55.557Z,15.63
2019-02-24T02:09:25.755Z,13.48
2019-02-24T02:11:56.003Z,13.73
2019-02-24T02:14:25.976Z,12.37
2019-02-24T02:16:56.118Z,15.23
2019-02-24T02:19:26.309Z,13.38
2019-02-24T02:21:56.450Z,12.30
2019-02-24T02:24:26.642Z,12.13
2019-02-24T02:26:56.689Z,12.47
2019-02-24T02:29:27.738Z,13.17
2019-02-24T02:31:57.324Z,13.10
2019-02-24T02:34:27.015Z,13.77
2019-02-24T02:36:57.313Z,14.65
2019-02-24T02:39:27.337Z,12.80
2019-02-24T02:41:57.474Z,14.20
2019-02-24T02:44:27.543Z,13.90
2019-02-24T02:46:57.703Z,15.17
2019-02-24T02:49:27.810Z,14.87
2019-02-24T02:51:57.940Z,17.27
2019-02-24T02:54:32.276Z,13.43
2019-02-24T02:57:01.735Z,13.00
2019-02-24T02:59:31.177Z,14.13
2019-02-24T03:02:00.696Z,15.57
2019-02-24T03:04:30.265Z,14.27
2019-02-24T03:07:04.440Z,17.40
2019-02-24T03:09:33.871Z,14.27
2019-02-24T03:12:03.313Z,13.43
2019-02-24T03:14:32.746Z,11.50
2019-02-24T03:17:02.204Z,12.00
2019-02-24T03:19:31.631Z,13.30
2019-02-24T03:22:01.088Z,13.33
2019-02-24T03:24:30.589Z,13.33
2019-02-24T03:27:00.024Z,14.43
2019-02-24T03:29:29.985Z,12.75
2019-02-24T03:32:00.111Z,14.30
2019-02-24T03:34:30.210Z,13.87
2019-02-24T03:37:00.621Z,14.80
2019-02-24T03:39:30.440Z,15.37
2019-02-24T03:42:00.750Z,16.50
2019-02-24T03:44:30.782Z,15.43
2019-02-24T03:47:00.903Z,14.03
2019-02-24T03:49:31.018Z,15.68
2019-02-24T03:52:01.158Z,13.68
2019-02-24T03:54:34.052Z,14.67
2019-02-24T03:57:05.194Z,14.23
2019-02-24T03:59:34.697Z,18.47
2019-02-24T04:02:04.240Z,16.93
2019-02-24T04:04:33.659Z,20.73
2019-02-24T04:07:03.105Z,16.80
2019-02-24T04:09:32.478Z,16.37
2019-02-24T04:12:02.255Z,15.28
2019-02-24T04:14:32.328Z,17.03
2019-02-24T04:17:02.514Z,16.03
2019-02-24T04:19:32.655Z,15.20
2019-02-24T04:22:02.851Z,16.90
2019-02-24T04:24:32.980Z,15.87
2019-02-24T04:27:03.090Z,15.30
2019-02-24T04:29:33.184Z,15.63
2019-02-24T04:32:05.114Z,15.88
2019-02-24T04:34:34.565Z,17.70
2019-02-24T04:37:04.013Z,16.20
2019-02-24T04:39:34.504Z,17.50
2019-02-24T04:42:03.974Z,18.43
2019-02-24T04:44:34.120Z,15.60
2019-02-24T04:47:04.306Z,15.77
2019-02-24T04:49:34.359Z,15.67
2019-02-24T04:52:04.853Z,16.40
2019-02-24T04:54:34.664Z,15.03
2019-02-24T04:57:04.779Z,15.78
2019-02-24T04:59:35.836Z,15.73
2019-02-24T05:02:05.337Z,17.03
2019-02-24T05:04:35.063Z,16.30
2019-02-24T05:07:05.273Z,16.73
2019-02-24T05:09:35.404Z,17.40
2019-02-24T05:12:05.385Z,15.57
2019-02-24T05:14:34.764Z,16.47
2019-02-24T05:17:04.200Z,16.47
2019-02-24T05:19:33.628Z,15.73
2019-02-24T05:22:02.978Z,16.37
2019-02-24T05:24:32.427Z,17.07
2019-02-24T05:27:01.846Z,22.50
2019-02-24T05:29:31.221Z,17.07
2019-02-24T05:32:01.723Z,17.37
2019-02-24T05:34:31.115Z,18.53
2019-02-24T05:37:00.540Z,17.83
2019-02-24T05:39:31.631Z,18.63
2019-02-24T05:42:00.984Z,19.37
2019-02-24T05:44:30.411Z,18.53
2019-02-24T05:47:01.433Z,17.90
2019-02-24T05:49:30.848Z,18.37
2019-02-24T05:52:00.233Z,19.60
2019-02-24T05:54:29.657Z,21.77
2019-02-24T05:56:59.107Z,19.47
2019-02-24T05:59:28.543Z,19.70
2019-02-24T06:01:57.999Z,18.67
2019-02-24T06:04:27.498Z,17.93
2019-02-24T06:06:56.930Z,19.37
2019-02-24T06:09:26.362Z,19.03
2019-02-24T06:11:55.812Z,18.90
2019-02-24T06:14:25.236Z,19.70
2019-02-24T06:16:54.675Z,18.53
2019-02-24T06:19:24.107Z,18.23
2019-02-24T06:21:53.547Z,18.33
2019-02-24T06:24:22.973Z,18.53
2019-02-24T06:26:52.421Z,19.13
2019-02-24T06:29:21.851Z,19.30
2019-02-24T06:31:51.303Z,20.67
2019-02-24T06:34:20.759Z,20.37
2019-02-24T06:36:50.192Z,20.30
2019-02-24T06:39:19.651Z,18.33
2019-02-24T06:41:49.088Z,18.47
2019-02-24T06:44:18.530Z,21.17
2019-02-24T06:46:47.959Z,19.80
2019-02-24T06:49:17.492Z,19.87
2019-02-24T06:51:49.705Z,18.77
2019-02-24T06:54:19.147Z,18.97
2019-02-24T06:56:49.555Z,19.53
2019-02-24T06:59:20.081Z,18.13
2019-02-24T07:01:49.526Z,20.40
2019-02-24T07:04:18.967Z,20.00
2019-02-24T07:06:48.403Z,21.00
2019-02-24T07:09:19.097Z,22.10
2019-02-24T07:11:48.597Z,21.30
2019-02-24T07:14:18.042Z,20.37
2019-02-24T07:16:47.463Z,19.30
2019-02-24T07:19:16.930Z,18.97
2019-02-24T07:21:46.382Z,22.37
2019-02-24T07:24:15.798Z,19.63
2019-02-24T07:26:45.235Z,20.60
2019-02-24T07:29:14.690Z,19.63
2019-02-24T07:31:44.605Z,19.75
2019-02-24T07:34:14.734Z,20.05
2019-02-24T07:36:44.825Z,20.80
2019-02-24T07:39:14.970Z,19.27
2019-02-24T07:41:45.061Z,21.03
2019-02-24T07:44:15.235Z,22.77
2019-02-24T07:46:45.357Z,21.57
2019-02-24T07:49:15.422Z,21.53
2019-02-24T07:51:46.470Z,21.03
2019-02-24T07:54:15.849Z,20.87
2019-02-24T07:56:45.771Z,22.57
2019-02-24T07:59:15.877Z,21.80
2019-02-24T08:01:45.979Z,23.90
2019-02-24T08:04:16.291Z,22.27
2019-02-24T08:06:46.310Z,20.92
2019-02-24T08:09:16.827Z,20.83
2019-02-24T08:11:46.261Z,22.57
2019-02-24T08:14:15.804Z,20.57
2019-02-24T08:16:45.241Z,22.63
2019-02-24T08:19:14.785Z,21.00
2019-02-24T08:21:44.293Z,21.87
2019-02-24T08:24:13.750Z,21.23
2019-02-24T08:26:43.197Z,22.67
2019-02-24T08:29:15.462Z,21.40
2019-02-24T08:31:45.962Z,22.53
2019-02-24T08:34:18.434Z,21.87
2019-02-24T08:36:47.922Z,21.67
2019-02-24T08:39:17.448Z,22.53
2019-02-24T08:41:46.872Z,21.47
2019-02-24T08:44:16.344Z,21.10
2019-02-24T08:46:45.775Z,22.93
2019-02-24T08:49:15.201Z,21.07
2019-02-24T08:51:44.722Z,21.23
2019-02-24T08:54:14.144Z,22.10
2019-02-24T08:56:43.585Z,22.00
2019-02-24T08:59:13.009Z,20.87
2019-02-24T09:01:42.456Z,22.80
2019-02-24T09:04:11.880Z,21.67
2019-02-24T09:06:41.358Z,22.47
2019-02-24T09:09:10.789Z,21.83
2019-02-24T09:11:40.258Z,23.93
2019-02-24T09:14:09.690Z,21.30
2019-02-24T09:16:39.185Z,21.67
2019-02-24T09:19:08.616Z,21.60
2019-02-24T09:21:38.128Z,21.37
2019-02-24T09:24:07.559Z,23.63
2019-02-24T09:26:37.015Z,22.00
2019-02-24T09:29:06.524Z,23.00
2019-02-24T09:31:36.020Z,21.40
2019-02-24T09:34:05.532Z,22.50
2019-02-24T09:36:34.969Z,22.97
2019-02-24T09:39:04.858Z,22.73
2019-02-24T09:41:34.904Z,21.60
2019-02-24T09:44:04.429Z,24.47
2019-02-24T09:46:33.881Z,23.27
2019-02-24T09:49:03.324Z,25.23
2019-02-24T09:51:32.845Z,26.00
2019-02-24T09:54:02.294Z,40.40
2019-02-24T09:56:31.802Z,72.83
2019-02-24T09:59:02.831Z,47.83
2019-02-24T10:01:32.420Z,25.20
2019-02-24T10:04:01.882Z,21.37
2019-02-24T10:06:31.325Z,21.13
2019-02-24T10:09:00.764Z,21.90
2019-02-24T10:11:32.086Z,20.57
2019-02-24T10:14:01.595Z,21.50
2019-02-24T10:16:31.132Z,21.70
2019-02-24T10:19:00.603Z,21.50
2019-02-24T10:21:30.113Z,21.87
2019-02-24T10:24:00.987Z,20.83
2019-02-24T10:26:30.459Z,20.33
2019-02-24T10:28:59.877Z,20.73
2019-02-24T10:31:29.467Z,20.87
2019-02-24T10:33:58.911Z,19.87
2019-02-24T10:36:29.280Z,20.83
2019-02-24T10:38:58.780Z,20.53
2019-02-24T10:41:29.855Z,20.67
2019-02-24T10:43:59.295Z,19.57
2019-02-24T10:46:28.807Z,20.90
2019-02-24T10:49:03.303Z,21.70
2019-02-24T10:51:31.737Z,22.90
2019-02-24T10:54:01.463Z,20.70
2019-02-24T10:56:30.920Z,21.60
2019-02-24T10:59:01.441Z,21.03
2019-02-24T11:01:30.887Z,19.87
2019-02-24T11:04:00.350Z,19.90
2019-02-24T11:06:29.791Z,21.07
2019-02-24T11:08:59.308Z,22.80
2019-02-24T11:11:28.890Z,21.43
2019-02-24T11:13:58.378Z,20.63
2019-02-24T11:16:27.824Z,20.80
2019-02-24T11:18:57.826Z,20.97
2019-02-24T11:21:27.895Z,21.27
2019-02-24T11:23:58.063Z,20.77
2019-02-24T11:26:28.212Z,21.60
2019-02-24T11:28:58.290Z,20.93
2019-02-24T11:31:28.355Z,21.17
2019-02-24T11:33:58.500Z,20.73
2019-02-24T11:36:28.584Z,21.83
2019-02-24T11:38:58.744Z,21.43
2019-02-24T11:41:29.061Z,21.40
2019-02-24T11:43:59.073Z,21.10
2019-02-24T11:46:29.174Z,20.37
2019-02-24T11:48:59.398Z,20.93
2019-02-24T11:51:29.527Z,21.80
2019-02-24T11:53:59.735Z,21.02
2019-02-24T11:56:29.822Z,21.40
2019-02-24T11:58:59.837Z,21.27
2019-02-24T12:01:30.049Z,22.40
2019-02-24T12:04:00.179Z,21.93
2019-02-24T12:06:30.454Z,21.68
2019-02-24T12:09:05.186Z,22.13
2019-02-24T12:11:33.097Z,21.27
2019-02-24T12:14:02.717Z,20.50
2019-02-24T12:16:33.234Z,22.60
2019-02-24T12:19:02.755Z,21.43
2019-02-24T12:21:32.253Z,21.43
2019-02-24T12:24:01.708Z,21.87
2019-02-24T12:26:31.233Z,20.63
2019-02-24T12:29:01.435Z,22.07
2019-02-24T12:31:31.498Z,21.55
2019-02-24T12:34:02.019Z,23.67
2019-02-24T12:36:33.698Z,21.00
2019-02-24T12:39:03.778Z,20.08
2019-02-24T12:41:34.883Z,21.47
2019-02-24T12:44:04.329Z,21.27
2019-02-24T12:46:33.779Z,20.90
2019-02-24T12:49:04.864Z,19.63
2019-02-24T12:51:34.326Z,21.02
2019-02-24T12:54:04.034Z,20.10
2019-02-24T12:56:33.600Z,19.45
2019-02-24T12:59:03.054Z,19.90
2019-02-24T13:01:33.193Z,19.62
2019-02-24T13:04:03.299Z,19.00
2019-02-24T13:06:33.451Z,19.93
2019-02-24T13:09:05.080Z,20.07
2019-02-24T13:11:34.859Z,19.77
2019-02-24T13:14:04.371Z,18.73
2019-02-24T13:16:34.081Z,18.77
2019-02-24T13:19:04.257Z,18.37
2019-02-24T13:21:34.365Z,18.73
2019-02-24T13:24:04.505Z,19.43
2019-02-24T13:26:34.548Z,18.87
2019-02-24T13:29:04.765Z,19.52
2019-02-24T13:31:36.537Z,18.10
2019-02-24T13:34:06.007Z,20.57
2019-02-24T13:36:35.518Z,18.92
2019-02-24T13:39:06.598Z,20.27
2019-02-24T13:41:36.237Z,18.45
2019-02-24T13:44:05.757Z,20.20
2019-02-24T13:46:35.504Z,18.47
2019-02-24T13:49:05.709Z,19.42
2019-02-24T13:51:35.947Z,17.55
2019-02-24T13:54:05.936Z,19.02
2019-02-24T13:56:36.085Z,18.65
2019-02-24T13:59:06.182Z,18.27
2019-02-24T14:01:36.323Z,18.37
2019-02-24T14:04:06.484Z,18.85
2019-02-24T14:06:36.565Z,18.87
2019-02-24T14:09:08.136Z,19.20
2019-02-24T14:11:37.678Z,18.85
2019-02-24T14:14:07.129Z,17.05
2019-02-24T14:16:37.135Z,18.13
2019-02-24T14:19:06.585Z,19.27
2019-02-24T14:21:36.022Z,18.23
2019-02-24T14:24:05.481Z,18.17
2019-02-24T14:26:34.936Z,17.67
2019-02-24T14:29:04.426Z,18.15
2019-02-24T14:31:33.864Z,17.77
2019-02-24T14:34:03.395Z,16.93
2019-02-24T14:36:33.229Z,16.25
2019-02-24T14:39:02.680Z,15.90
2019-02-24T14:41:33.842Z,15.40
2019-02-24T14:44:03.295Z,15.95
2019-02-24T14:46:32.792Z,16.13
2019-02-24T14:49:02.213Z,16.15
2019-02-24T14:51:31.665Z,15.33
2019-02-24T14:54:01.157Z,18.03
2019-02-24T14:56:30.595Z,18.30
2019-02-24T14:59:00.062Z,19.00
2019-02-24T15:01:29.527Z,20.27
2019-02-24T15:03:59.505Z,18.62
2019-02-24T15:06:28.992Z,19.37
2019-02-24T15:08:58.380Z,19.33
2019-02-24T15:11:27.858Z,18.40
2019-02-24T15:13:57.282Z,18.30
2019-02-24T15:16:26.844Z,17.77
2019-02-24T15:18:56.225Z,16.37
2019-02-24T15:21:25.676Z,17.15
2019-02-24T15:23:55.158Z,16.55
2019-02-24T15:26:24.676Z,17.17
2019-02-24T15:28:55.368Z,17.20
2019-02-24T15:31:24.828Z,18.63
2019-02-24T15:33:54.358Z,18.80
2019-02-24T15:36:23.826Z,18.17
2019-02-24T15:38:53.350Z,18.70
2019-02-24T15:41:29.577Z,18.40
2019-02-24T15:43:53.979Z,16.87
2019-02-24T15:46:23.474Z,19.13
2019-02-24T15:48:53.243Z,19.40
2019-02-24T15:51:22.762Z,18.87
2019-02-24T15:53:52.429Z,19.33
2019-02-24T15:56:21.881Z,18.60
2019-02-24T15:58:51.327Z,17.52
2019-02-24T16:01:20.864Z,18.83
2019-02-24T16:03:50.328Z,18.67
2019-02-24T16:06:19.796Z,18.67
2019-02-24T16:08:49.258Z,18.80
2019-02-24T16:11:18.830Z,19.63
2019-02-24T16:13:48.278Z,20.55
2019-02-24T16:16:19.280Z,22.53
2019-02-24T16:18:48.808Z,19.03
2019-02-24T16:21:19.751Z,20.13
2019-02-24T16:23:49.179Z,21.10
2019-02-24T16:26:18.672Z,22.13
2019-02-24T16:28:48.254Z,19.60
2019-02-24T16:31:17.757Z,23.83
2019-02-24T16:33:47.255Z,22.13
2019-02-24T16:36:16.724Z,22.07
2019-02-24T16:38:47.152Z,22.83
2019-02-24T16:41:16.703Z,24.73
2019-02-24T16:43:46.202Z,22.73
2019-02-24T16:46:15.760Z,20.67
2019-02-24T16:48:46.974Z,21.00
2019-02-24T16:51:16.435Z,20.63
2019-02-24T16:53:45.989Z,23.80
2019-02-24T16:56:16.020Z,21.17
2019-02-24T16:58:46.007Z,20.13
2019-02-24T17:01:16.232Z,25.57
2019-02-24T17:03:46.322Z,28.23
2019-02-24T17:06:16.783Z,22.90
2019-02-24T17:08:51.884Z,26.93
2019-02-24T17:11:20.163Z,22.70
2019-02-24T17:13:50.676Z,24.20
2019-02-24T17:16:21.525Z,25.90
2019-02-24T17:18:50.983Z,25.70
2019-02-24T17:21:20.813Z,28.60
2019-02-24T17:23:52.339Z,28.17
2019-02-24T17:26:21.490Z,26.73
2019-02-24T17:28:50.935Z,28.67
2019-02-24T17:31:28.111Z,27.23
2019-02-24T17:33:51.964Z,30.47
2019-02-24T17:36:22.154Z,32.70
2019-02-24T17:38:51.692Z,32.10
2019-02-24T17:41:21.309Z,31.23
2019-02-24T17:43:52.197Z,39.67
2019-02-24T17:46:22.835Z,45.63
2019-02-24T17:48:53.836Z,45.67
2019-02-24T17:51:26.019Z,53.20
2019-02-24T17:53:55.601Z,63.53
2019-02-24T17:56:25.072Z,64.40
2019-02-24T17:58:54.533Z,62.37
2019-02-24T18:01:24.088Z,59.00
2019-02-24T18:03:54.632Z,73.07
2019-02-24T18:06:26.242Z,67.33
2019-02-24T18:08:55.694Z,53.93
2019-02-24T18:11:26.393Z,57.57
2019-02-24T18:13:59.579Z,83.60
2019-02-24T18:16:29.996Z,71.27
2019-02-24T18:18:59.515Z,35.37
2019-02-24T18:21:28.997Z,31.53
2019-02-24T18:23:59.897Z,32.10
2019-02-24T18:26:29.365Z,33.17
2019-02-24T18:28:58.896Z,32.53
2019-02-24T18:31:28.428Z,33.27
2019-02-24T18:34:01.506Z,32.60
2019-02-24T18:36:30.944Z,35.77
2019-02-24T18:39:00.399Z,32.70
2019-02-24T18:41:34.126Z,38.87
2019-02-24T18:44:03.579Z,37.07
2019-02-24T18:46:34.743Z,36.30
2019-02-24T18:49:08.661Z,30.50
2019-02-24T18:51:38.279Z,32.77
2019-02-24T18:54:09.094Z,32.13
2019-02-24T18:56:40.237Z,31.43
2019-02-24T18:59:09.768Z,33.67
2019-02-24T19:01:40.337Z,31.97
2019-02-24T19:04:09.796Z,32.90
2019-02-24T19:06:39.899Z,35.50
2019-02-24T19:09:10.268Z,35.53
2019-02-24T19:11:40.099Z,33.83
2019-02-24T19:14:10.935Z,38.57
2019-02-24T19:16:42.391Z,35.67
2019-02-24T19:19:12.214Z,41.90
2019-02-24T19:21:43.217Z,40.60
2019-02-24T19:24:12.676Z,36.03
2019-02-24T19:26:42.186Z,38.60
2019-02-24T19:29:13.281Z,37.77
2019-02-24T19:31:44.347Z,34.97
2019-02-24T19:34:13.800Z,37.40
2019-02-24T19:36:43.240Z,39.00
2019-02-24T19:39:14.349Z,38.17
2019-02-24T19:41:44.453Z,39.97
2019-02-24T19:44:13.983Z,38.23
2019-02-24T19:46:44.792Z,39.33
2019-02-24T19:49:14.259Z,43.33
2019-02-24T19:51:45.112Z,46.33
2019-02-24T19:54:15.131Z,48.10
2019-02-24T19:56:44.590Z,47.93
2019-02-24T19:59:14.037Z,46.87
2019-02-24T20:01:46.009Z,42.93
2019-02-24T20:04:19.914Z,42.87
2019-02-24T20:06:49.404Z,44.37
2019-02-24T20:09:19.008Z,42.17
2019-02-24T20:11:51.158Z,42.87
2019-02-24T20:14:20.613Z,42.30
2019-02-24T20:16:50.715Z,42.97
2019-02-24T20:19:21.073Z,41.23
2019-02-24T20:21:50.550Z,40.10
2019-02-24T20:24:20.291Z,39.37
2019-02-24T20:26:50.572Z,43.13
2019-02-24T20:29:23.858Z,41.77
2019-02-24T20:31:53.974Z,46.10
2019-02-24T20:34:25.843Z,42.20
2019-02-24T20:36:57.669Z,39.80
2019-02-24T20:39:28.034Z,42.63
2019-02-24T20:41:57.570Z,40.80
2019-02-24T20:44:28.223Z,45.07
2019-02-24T20:46:57.737Z,41.67
2019-02-24T20:49:27.213Z,45.13
2019-02-24T20:51:56.640Z,45.03
2019-02-24T20:54:27.704Z,49.50
2019-02-24T20:56:57.128Z,49.27
2019-02-24T20:59:26.627Z,48.67
2019-02-24T21:01:56.171Z,47.90
2019-02-24T21:04:26.171Z,39.63
2019-02-24T21:06:55.703Z,34.70
2019-02-24T21:09:25.256Z,42.83
2019-02-24T21:11:54.758Z,39.30
2019-02-24T21:14:25.570Z,41.80
2019-02-24T21:16:58.046Z,41.53
2019-02-24T21:19:28.593Z,41.93
2019-02-24T21:21:58.127Z,35.20
2019-02-24T21:24:27.652Z,38.90
2019-02-24T21:26:58.354Z,37.60
2019-02-24T21:29:28.207Z,34.87
2019-02-24T21:31:57.643Z,36.13
2019-02-24T21:34:28.510Z,36.73
2019-02-24T21:36:57.966Z,34.30
2019-02-24T21:39:27.498Z,34.03
2019-02-24T21:41:56.974Z,31.60
2019-02-24T21:44:26.437Z,35.33
2019-02-24T21:46:55.930Z,35.60
2019-02-24T21:49:25.445Z,33.30
2019-02-24T21:51:56.142Z,34.80
2019-02-24T21:54:25.607Z,34.03
2019-02-24T21:56:55.118Z,33.30
2019-02-24T21:59:24.596Z,33.13
2019-02-24T22:01:54.106Z,34.00
2019-02-24T22:04:23.638Z,29.77
2019-02-24T22:06:53.089Z,33.80
2019-02-24T22:09:22.543Z,34.33
2019-02-24T22:11:52.062Z,29.00
2019-02-24T22:14:23.454Z,31.27
2019-02-24T22:16:52.893Z,31.53
2019-02-24T22:19:22.335Z,31.43
2019-02-24T22:21:51.813Z,32.50
2019-02-24T22:24:21.241Z,31.80
2019-02-24T22:26:50.683Z,31.25
2019-02-24T22:29:20.156Z,32.13
2019-02-24T22:31:49.596Z,32.00
2019-02-24T22:34:19.029Z,33.00
2019-02-24T22:36:48.430Z,30.13
2019-02-24T22:39:17.871Z,30.57
2019-02-24T22:41:47.369Z,29.93
2019-02-24T22:44:18.456Z,33.70
2019-02-24T22:46:47.941Z,32.53
2019-02-24T22:49:17.396Z,31.17
2019-02-24T22:51:46.830Z,30.10
2019-02-24T22:54:16.308Z,29.73
2019-02-24T22:56:45.813Z,31.10
2019-02-24T22:59:15.257Z,29.50
2019-02-24T23:01:45.553Z,31.70
2019-02-24T23:04:15.386Z,31.97
2019-02-24T23:06:44.856Z,30.87
2019-02-24T23:09:15.232Z,33.53
2019-02-24T23:11:44.927Z,32.13
2019-02-24T23:14:14.352Z,30.30
2019-02-24T23:16:43.951Z,31.07
2019-02-24T23:19:14.179Z,31.83
2019-02-24T23:21:44.671Z,31.73
2019-02-24T23:24:14.310Z,31.50
2019-02-24T23:26:46.895Z,31.70
2019-02-24T23:29:16.334Z,34.80
2019-02-24T23:31:45.753Z,32.07
2019-02-24T23:34:15.140Z,33.17
2019-02-24T23:36:45.002Z,30.17
2019-02-24T23:39:16.513Z,32.40
2019-02-24T23:41:46.789Z,33.47
2019-02-24T23:44:16.394Z,32.40
2019-02-24T23:46:45.818Z,32.10
2019-02-24T23:49:17.516Z,30.47
2019-02-24T23:51:46.773Z,34.43
2019-02-24T23:54:17.283Z,35.70
2019-02-24T23:56:47.796Z,31.43
2019-02-24T23:59:17.236Z,32.67
